sensor_id;sensor_type;location;lat;lon;timestamp;pressure;altitude;pressure_sealevel;temperature;humidity
29825;BME280;16713;52.916;12.834;2023-05-01T00:01:39;101560.53;;;6.15;63.14
29825;BME280;16713;52.916;12.834;2023-05-01T00:04:05;101554.78;;;6.17;63.47
29825;BME280;16713;52.916;12.834;2023-05-01T00:06:32;101556.59;;;6.35;63.76
29825;BME280;16713;52.916;12.834;2023-05-01T00:08:59;101549.34;;;6.30;63.97
29825;BME280;16713;52.916;12.834;2023-05-01T00:11:25;101547.81;;;6.38;63.70
29825;BME280;16713;52.916;12.834;2023-05-01T00:13:52;101548.72;;;6.47;62.45
29825;BME280;16713;52.916;12.834;2023-05-01T00:16:19;101549.94;;;6.41;63.31
29825;BME280;16713;52.916;12.834;2023-05-01T00:18:46;101541.34;;;6.48;63.43
29825;BME280;16713;52.916;12.834;2023-05-01T00:21:12;101540.84;;;6.46;63.98
29825;BME280;16713;52.916;12.834;2023-05-01T00:23:39;101536.69;;;6.48;63.96
29825;BME280;16713;52.916;12.834;2023-05-01T00:26:05;101535.19;;;6.42;64.12
29825;BME280;16713;52.916;12.834;2023-05-01T00:28:32;101531.34;;;6.43;63.43
29825;BME280;16713;52.916;12.834;2023-05-01T00:30:59;101531.84;;;6.45;64.54
29825;BME280;16713;52.916;12.834;2023-05-01T00:33:25;101525.91;;;6.43;64.15
29825;BME280;16713;52.916;12.834;2023-05-01T00:35:52;101518.94;;;6.51;64.53
29825;BME280;16713;52.916;12.834;2023-05-01T00:38:18;101523.38;;;6.47;64.61
29825;BME280;16713;52.916;12.834;2023-05-01T00:40:45;101515.81;;;6.44;64.99
29825;BME280;16713;52.916;12.834;2023-05-01T00:43:12;101513.19;;;6.52;64.48
29825;BME280;16713;52.916;12.834;2023-05-01T00:45:42;101506.59;;;6.53;64.43
29825;BME280;16713;52.916;12.834;2023-05-01T00:48:09;101511.78;;;6.41;63.95
29825;BME280;16713;52.916;12.834;2023-05-01T00:50:36;101510.97;;;6.41;64.40
29825;BME280;16713;52.916;12.834;2023-05-01T00:53:03;101506.81;;;6.43;64.53
29825;BME280;16713;52.916;12.834;2023-05-01T00:55:31;101502.50;;;6.42;64.43
29825;BME280;16713;52.916;12.834;2023-05-01T00:58:00;101501.78;;;6.37;64.49
29825;BME280;16713;52.916;12.834;2023-05-01T01:00:26;101495.56;;;6.36;64.56
29825;BME280;16713;52.916;12.834;2023-05-01T01:02:54;101497.06;;;6.28;64.90
29825;BME280;16713;52.916;12.834;2023-05-01T01:05:24;101489.00;;;6.23;64.75
29825;BME280;16713;52.916;12.834;2023-05-01T01:08:14;101493.34;;;6.11;64.34
29825;BME280;16713;52.916;12.834;2023-05-01T01:10:53;101495.47;;;6.14;65.16
29825;BME280;16713;52.916;12.834;2023-05-01T01:13:31;101496.06;;;6.11;66.42
29825;BME280;16713;52.916;12.834;2023-05-01T01:18:47;101492.56;;;5.97;66.14
29825;BME280;16713;52.916;12.834;2023-05-01T01:21:40;101489.94;;;5.92;66.81
29825;BME280;16713;52.916;12.834;2023-05-01T01:27:18;101485.41;;;5.74;66.42
29825;BME280;16713;52.916;12.834;2023-05-01T01:35:37;101484.25;;;5.53;66.85
29825;BME280;16713;52.916;12.834;2023-05-01T01:38:15;101483.09;;;5.40;66.67
29825;BME280;16713;52.916;12.834;2023-05-01T01:40:54;101479.91;;;5.38;66.66
29825;BME280;16713;52.916;12.834;2023-05-01T01:43:23;101477.25;;;5.47;67.75
29825;BME280;16713;52.916;12.834;2023-05-01T01:45:58;101471.53;;;5.35;67.77
29825;BME280;16713;52.916;12.834;2023-05-01T01:48:30;101473.84;;;5.41;68.17
29825;BME280;16713;52.916;12.834;2023-05-01T01:50:59;101470.09;;;5.37;67.19
29825;BME280;16713;52.916;12.834;2023-05-01T01:53:28;101469.72;;;5.30;67.68
29825;BME280;16713;52.916;12.834;2023-05-01T01:55:56;101467.78;;;5.31;67.26
29825;BME280;16713;52.916;12.834;2023-05-01T01:58:28;101462.63;;;5.29;67.30
29825;BME280;16713;52.916;12.834;2023-05-01T02:00:56;101460.69;;;5.16;67.47
29825;BME280;16713;52.916;12.834;2023-05-01T02:03:24;101452.16;;;5.09;68.03
29825;BME280;16713;52.916;12.834;2023-05-01T02:05:53;101449.31;;;5.01;68.51
29825;BME280;16713;52.916;12.834;2023-05-01T02:08:23;101450.63;;;5.03;68.21
29825;BME280;16713;52.916;12.834;2023-05-01T02:10:51;101447.00;;;5.08;68.46
29825;BME280;16713;52.916;12.834;2023-05-01T02:13:29;101442.38;;;5.08;67.65
29825;BME280;16713;52.916;12.834;2023-05-01T02:16:01;101448.31;;;4.97;68.22
29825;BME280;16713;52.916;12.834;2023-05-01T02:18:28;101435.63;;;5.06;67.89
29825;BME280;16713;52.916;12.834;2023-05-01T02:20:58;101430.41;;;5.09;68.11
29825;BME280;16713;52.916;12.834;2023-05-01T02:23:28;101435.63;;;5.06;68.06
29825;BME280;16713;52.916;12.834;2023-05-01T02:25:56;101429.69;;;5.04;68.30
29825;BME280;16713;52.916;12.834;2023-05-01T02:28:23;101423.72;;;5.02;68.25
29825;BME280;16713;52.916;12.834;2023-05-01T02:30:52;101431.31;;;5.05;68.21
29825;BME280;16713;52.916;12.834;2023-05-01T02:33:18;101431.41;;;5.00;68.96
29825;BME280;16713;52.916;12.834;2023-05-01T02:35:45;101427.88;;;4.99;68.31
29825;BME280;16713;52.916;12.834;2023-05-01T02:38:12;101426.13;;;4.89;68.75
29825;BME280;16713;52.916;12.834;2023-05-01T02:40:40;101419.28;;;4.78;68.74
29825;BME280;16713;52.916;12.834;2023-05-01T02:43:08;101415.59;;;4.69;68.63
29825;BME280;16713;52.916;12.834;2023-05-01T02:45:39;101421.09;;;4.51;68.21
29825;BME280;16713;52.916;12.834;2023-05-01T02:48:06;101420.28;;;4.50;69.16
29825;BME280;16713;52.916;12.834;2023-05-01T02:50:35;101413.06;;;4.41;68.51
29825;BME280;16713;52.916;12.834;2023-05-01T02:53:02;101415.22;;;4.44;69.32
29825;BME280;16713;52.916;12.834;2023-05-01T02:55:29;101413.03;;;4.46;69.70
29825;BME280;16713;52.916;12.834;2023-05-01T02:57:58;101410.22;;;4.51;69.12
29825;BME280;16713;52.916;12.834;2023-05-01T03:00:25;101401.41;;;4.59;69.32
29825;BME280;16713;52.916;12.834;2023-05-01T03:02:51;101402.50;;;4.58;69.69
29825;BME280;16713;52.916;12.834;2023-05-01T03:05:18;101395.38;;;4.62;69.51
29825;BME280;16713;52.916;12.834;2023-05-01T03:07:45;101387.25;;;4.75;68.77
29825;BME280;16713;52.916;12.834;2023-05-01T03:10:12;101390.66;;;4.67;68.88
29825;BME280;16713;52.916;12.834;2023-05-01T03:12:38;101384.34;;;4.72;69.41
29825;BME280;16713;52.916;12.834;2023-05-01T03:15:05;101384.81;;;4.60;68.92
29825;BME280;16713;52.916;12.834;2023-05-01T03:17:31;101382.00;;;4.65;68.18
29825;BME280;16713;52.916;12.834;2023-05-01T03:19:59;101383.91;;;4.65;68.78
29825;BME280;16713;52.916;12.834;2023-05-01T03:22:27;101381.16;;;4.51;67.83
29825;BME280;16713;52.916;12.834;2023-05-01T03:24:54;101384.47;;;4.48;68.13
29825;BME280;16713;52.916;12.834;2023-05-01T03:27:20;101377.47;;;4.42;68.57
29825;BME280;16713;52.916;12.834;2023-05-01T03:29:46;101370.59;;;4.31;68.65
29825;BME280;16713;52.916;12.834;2023-05-01T03:32:13;101372.38;;;4.22;68.42
29825;BME280;16713;52.916;12.834;2023-05-01T03:34:41;101368.78;;;4.27;69.12
29825;BME280;16713;52.916;12.834;2023-05-01T03:37:08;101379.31;;;4.15;69.02
29825;BME280;16713;52.916;12.834;2023-05-01T03:39:34;101369.00;;;4.12;68.55
29825;BME280;16713;52.916;12.834;2023-05-01T03:42:02;101367.19;;;4.07;68.58
29825;BME280;16713;52.916;12.834;2023-05-01T03:44:28;101369.09;;;4.07;69.12
29825;BME280;16713;52.916;12.834;2023-05-01T03:46:54;101371.06;;;4.01;69.40
29825;BME280;16713;52.916;12.834;2023-05-01T03:49:21;101367.06;;;3.99;69.06
29825;BME280;16713;52.916;12.834;2023-05-01T03:51:47;101368.81;;;3.90;69.69
29825;BME280;16713;52.916;12.834;2023-05-01T03:54:14;101369.63;;;3.90;69.65
29825;BME280;16713;52.916;12.834;2023-05-01T03:56:41;101359.13;;;3.84;70.02
29825;BME280;16713;52.916;12.834;2023-05-01T03:59:07;101362.84;;;3.88;69.97
29825;BME280;16713;52.916;12.834;2023-05-01T04:01:33;101362.56;;;3.89;70.47
29825;BME280;16713;52.916;12.834;2023-05-01T04:04:00;101362.06;;;3.87;70.21
29825;BME280;16713;52.916;12.834;2023-05-01T04:06:27;101369.25;;;3.97;70.77
29825;BME280;16713;52.916;12.834;2023-05-01T04:08:54;101357.72;;;4.05;71.47
29825;BME280;16713;52.916;12.834;2023-05-01T04:11:20;101353.16;;;4.19;70.22
29825;BME280;16713;52.916;12.834;2023-05-01T04:13:47;101348.88;;;4.31;70.88
29825;BME280;16713;52.916;12.834;2023-05-01T04:16:13;101350.22;;;4.34;71.37
29825;BME280;16713;52.916;12.834;2023-05-01T04:18:40;101351.16;;;4.43;70.92
29825;BME280;16713;52.916;12.834;2023-05-01T04:21:06;101350.84;;;4.44;69.90
29825;BME280;16713;52.916;12.834;2023-05-01T04:23:32;101347.47;;;4.52;70.96
29825;BME280;16713;52.916;12.834;2023-05-01T04:25:59;101347.88;;;4.59;69.64
29825;BME280;16713;52.916;12.834;2023-05-01T04:28:25;101342.94;;;4.61;70.47
29825;BME280;16713;52.916;12.834;2023-05-01T04:30:52;101347.41;;;4.71;69.69
29825;BME280;16713;52.916;12.834;2023-05-01T04:33:19;101349.22;;;4.75;70.41
29825;BME280;16713;52.916;12.834;2023-05-01T04:35:45;101338.66;;;4.87;70.62
29825;BME280;16713;52.916;12.834;2023-05-01T04:38:11;101341.28;;;4.93;70.75
29825;BME280;16713;52.916;12.834;2023-05-01T04:40:38;101340.06;;;4.99;70.40
29825;BME280;16713;52.916;12.834;2023-05-01T04:43:04;101348.03;;;4.95;69.86
29825;BME280;16713;52.916;12.834;2023-05-01T04:45:30;101339.75;;;5.00;70.74
29825;BME280;16713;52.916;12.834;2023-05-01T04:47:57;101340.69;;;5.09;70.58
29825;BME280;16713;52.916;12.834;2023-05-01T04:50:23;101346.50;;;5.16;69.97
29825;BME280;16713;52.916;12.834;2023-05-01T04:52:50;101348.13;;;5.31;70.04
29825;BME280;16713;52.916;12.834;2023-05-01T04:55:16;101347.09;;;5.40;69.98
29825;BME280;16713;52.916;12.834;2023-05-01T04:57:43;101338.09;;;5.53;69.43
29825;BME280;16713;52.916;12.834;2023-05-01T05:00:10;101339.31;;;5.61;69.93
29825;BME280;16713;52.916;12.834;2023-05-01T05:02:36;101338.75;;;5.72;70.56
29825;BME280;16713;52.916;12.834;2023-05-01T05:05:03;101340.44;;;5.82;70.08
29825;BME280;16713;52.916;12.834;2023-05-01T05:07:29;101340.84;;;5.89;69.44
29825;BME280;16713;52.916;12.834;2023-05-01T05:09:55;101339.50;;;6.00;69.63
29825;BME280;16713;52.916;12.834;2023-05-01T05:12:22;101336.72;;;6.13;69.20
29825;BME280;16713;52.916;12.834;2023-05-01T05:14:48;101341.13;;;6.23;67.95
29825;BME280;16713;52.916;12.834;2023-05-01T05:17:15;101339.28;;;6.32;66.44
29825;BME280;16713;52.916;12.834;2023-05-01T05:19:41;101342.25;;;6.44;65.69
29825;BME280;16713;52.916;12.834;2023-05-01T05:22:07;101340.88;;;6.55;66.35
29825;BME280;16713;52.916;12.834;2023-05-01T05:24:34;101346.22;;;6.69;65.53
29825;BME280;16713;52.916;12.834;2023-05-01T05:27:00;101336.19;;;6.78;66.25
29825;BME280;16713;52.916;12.834;2023-05-01T05:29:26;101333.97;;;6.88;65.45
29825;BME280;16713;52.916;12.834;2023-05-01T05:31:53;101334.84;;;6.97;65.44
29825;BME280;16713;52.916;12.834;2023-05-01T05:34:19;101333.56;;;7.03;65.42
29825;BME280;16713;52.916;12.834;2023-05-01T05:36:46;101328.44;;;7.10;64.74
29825;BME280;16713;52.916;12.834;2023-05-01T05:39:12;101327.50;;;7.15;64.07
29825;BME280;16713;52.916;12.834;2023-05-01T05:41:38;101328.66;;;7.22;64.28
29825;BME280;16713;52.916;12.834;2023-05-01T05:44:05;101331.28;;;7.36;64.88
29825;BME280;16713;52.916;12.834;2023-05-01T05:46:32;101334.47;;;7.46;65.47
29825;BME280;16713;52.916;12.834;2023-05-01T05:48:58;101329.53;;;7.65;65.18
29825;BME280;16713;52.916;12.834;2023-05-01T05:51:24;101326.50;;;7.75;64.11
29825;BME280;16713;52.916;12.834;2023-05-01T05:53:51;101329.25;;;7.93;64.16
29825;BME280;16713;52.916;12.834;2023-05-01T05:56:18;101332.16;;;8.05;64.06
29825;BME280;16713;52.916;12.834;2023-05-01T05:58:44;101327.31;;;8.19;62.37
29825;BME280;16713;52.916;12.834;2023-05-01T06:01:10;101327.59;;;8.34;62.28
29825;BME280;16713;52.916;12.834;2023-05-01T06:03:37;101326.94;;;8.46;61.86
29825;BME280;16713;52.916;12.834;2023-05-01T06:06:04;101320.16;;;8.60;61.11
29825;BME280;16713;52.916;12.834;2023-05-01T06:08:31;101322.97;;;8.81;60.25
29825;BME280;16713;52.916;12.834;2023-05-01T06:10:57;101324.53;;;8.99;59.58
29825;BME280;16713;52.916;12.834;2023-05-01T06:13:24;101322.53;;;9.08;59.87
29825;BME280;16713;52.916;12.834;2023-05-01T06:15:50;101317.34;;;9.15;61.29
29825;BME280;16713;52.916;12.834;2023-05-01T06:18:17;101321.00;;;9.28;60.66
29825;BME280;16713;52.916;12.834;2023-05-01T06:20:44;101318.50;;;9.43;58.93
29825;BME280;16713;52.916;12.834;2023-05-01T06:23:10;101335.22;;;9.50;58.50
29825;BME280;16713;52.916;12.834;2023-05-01T06:25:38;101323.75;;;9.57;60.10
29825;BME280;16713;52.916;12.834;2023-05-01T06:28:05;101327.16;;;9.74;60.32
29825;BME280;16713;52.916;12.834;2023-05-01T06:30:32;101328.00;;;9.87;60.08
29825;BME280;16713;52.916;12.834;2023-05-01T06:32:58;101330.50;;;10.00;59.63
29825;BME280;16713;52.916;12.834;2023-05-01T06:35:24;101333.63;;;10.11;58.51
29825;BME280;16713;52.916;12.834;2023-05-01T06:37:51;101328.97;;;10.23;58.69
29825;BME280;16713;52.916;12.834;2023-05-01T06:40:17;101330.53;;;10.33;56.80
29825;BME280;16713;52.916;12.834;2023-05-01T06:42:43;101336.06;;;10.45;57.37
29825;BME280;16713;52.916;12.834;2023-05-01T06:45:10;101335.53;;;10.64;58.10
29825;BME280;16713;52.916;12.834;2023-05-01T06:47:36;101331.88;;;10.72;57.03
29825;BME280;16713;52.916;12.834;2023-05-01T06:50:02;101339.13;;;10.88;56.84
29825;BME280;16713;52.916;12.834;2023-05-01T06:52:31;101338.22;;;10.96;57.15
29825;BME280;16713;52.916;12.834;2023-05-01T06:54:57;101338.59;;;11.07;55.98
29825;BME280;16713;52.916;12.834;2023-05-01T06:57:23;101336.41;;;11.12;55.78
29825;BME280;16713;52.916;12.834;2023-05-01T06:59:50;101335.03;;;11.18;55.16
29825;BME280;16713;52.916;12.834;2023-05-01T07:02:16;101328.06;;;11.21;55.50
29825;BME280;16713;52.916;12.834;2023-05-01T07:04:43;101332.53;;;11.37;55.49
29825;BME280;16713;52.916;12.834;2023-05-01T07:07:10;101335.13;;;11.46;54.29
29825;BME280;16713;52.916;12.834;2023-05-01T07:09:37;101328.72;;;11.54;54.72
29825;BME280;16713;52.916;12.834;2023-05-01T07:12:04;101335.22;;;11.73;54.97
29825;BME280;16713;52.916;12.834;2023-05-01T07:14:31;101328.38;;;11.67;55.16
29825;BME280;16713;52.916;12.834;2023-05-01T07:16:57;101333.94;;;11.83;54.25
29825;BME280;16713;52.916;12.834;2023-05-01T07:19:24;101328.66;;;11.90;54.41
29825;BME280;16713;52.916;12.834;2023-05-01T07:21:50;101326.41;;;11.68;53.59
29825;BME280;16713;52.916;12.834;2023-05-01T07:24:16;101318.56;;;11.94;53.26
29825;BME280;16713;52.916;12.834;2023-05-01T07:26:43;101321.38;;;11.70;53.91
29825;BME280;16713;52.916;12.834;2023-05-01T07:29:09;101323.19;;;11.90;54.31
29825;BME280;16713;52.916;12.834;2023-05-01T07:31:36;101316.50;;;11.91;55.48
29825;BME280;16713;52.916;12.834;2023-05-01T07:34:04;101310.44;;;11.97;54.02
29825;BME280;16713;52.916;12.834;2023-05-01T07:36:30;101308.59;;;12.02;54.69
29825;BME280;16713;52.916;12.834;2023-05-01T07:38:59;101311.72;;;12.16;54.70
29825;BME280;16713;52.916;12.834;2023-05-01T07:41:26;101309.59;;;12.09;54.05
29825;BME280;16713;52.916;12.834;2023-05-01T07:43:52;101309.03;;;12.04;54.75
29825;BME280;16713;52.916;12.834;2023-05-01T07:46:19;101304.19;;;12.13;54.05
29825;BME280;16713;52.916;12.834;2023-05-01T07:48:45;101299.47;;;12.13;54.52
29825;BME280;16713;52.916;12.834;2023-05-01T07:51:11;101301.50;;;12.16;54.98
29825;BME280;16713;52.916;12.834;2023-05-01T07:53:38;101303.06;;;12.29;53.80
29825;BME280;16713;52.916;12.834;2023-05-01T07:56:06;101294.19;;;12.36;53.92
29825;BME280;16713;52.916;12.834;2023-05-01T07:58:34;101306.13;;;12.55;52.84
29825;BME280;16713;52.916;12.834;2023-05-01T08:01:02;101296.00;;;12.44;52.61
29825;BME280;16713;52.916;12.834;2023-05-01T08:03:29;101292.72;;;12.54;54.43
29825;BME280;16713;52.916;12.834;2023-05-01T08:05:56;101302.88;;;12.96;53.04
29825;BME280;16713;52.916;12.834;2023-05-01T08:08:22;101295.41;;;13.28;53.25
29825;BME280;16713;52.916;12.834;2023-05-01T08:10:49;101294.94;;;13.61;53.47
29825;BME280;16713;52.916;12.834;2023-05-01T08:13:16;101303.56;;;13.94;51.70
29825;BME280;16713;52.916;12.834;2023-05-01T08:15:46;101303.50;;;14.09;52.20
29825;BME280;16713;52.916;12.834;2023-05-01T08:18:13;101301.00;;;14.23;50.94
29825;BME280;16713;52.916;12.834;2023-05-01T08:20:45;101305.56;;;14.35;50.75
29825;BME280;16713;52.916;12.834;2023-05-01T08:23:13;101312.97;;;14.50;48.12
29825;BME280;16713;52.916;12.834;2023-05-01T08:25:39;101307.88;;;14.52;47.75
29825;BME280;16713;52.916;12.834;2023-05-01T08:28:05;101306.88;;;14.60;49.06
29825;BME280;16713;52.916;12.834;2023-05-01T08:30:32;101318.66;;;14.80;49.04
29825;BME280;16713;52.916;12.834;2023-05-01T08:32:58;101309.16;;;14.77;48.15
29825;BME280;16713;52.916;12.834;2023-05-01T08:35:24;101312.22;;;14.95;48.35
29825;BME280;16713;52.916;12.834;2023-05-01T08:37:51;101309.13;;;15.00;47.60
29825;BME280;16713;52.916;12.834;2023-05-01T08:40:18;101309.72;;;15.12;48.59
29825;BME280;16713;52.916;12.834;2023-05-01T08:42:44;101317.84;;;15.24;48.39
29825;BME280;16713;52.916;12.834;2023-05-01T08:45:11;101310.25;;;15.21;47.73
29825;BME280;16713;52.916;12.834;2023-05-01T08:47:38;101295.13;;;14.89;47.86
29825;BME280;16713;52.916;12.834;2023-05-01T08:50:08;101302.56;;;15.08;46.66
29825;BME280;16713;52.916;12.834;2023-05-01T08:52:37;101298.63;;;15.09;46.93
29825;BME280;16713;52.916;12.834;2023-05-01T08:55:05;101298.06;;;15.22;46.94
29825;BME280;16713;52.916;12.834;2023-05-01T08:57:32;101291.06;;;15.06;48.08
29825;BME280;16713;52.916;12.834;2023-05-01T09:00:00;101295.28;;;15.22;48.05
29825;BME280;16713;52.916;12.834;2023-05-01T09:02:29;101289.31;;;14.94;49.06
29825;BME280;16713;52.916;12.834;2023-05-01T09:04:56;101301.63;;;15.23;48.99
29825;BME280;16713;52.916;12.834;2023-05-01T09:07:25;101292.53;;;15.22;47.47
29825;BME280;16713;52.916;12.834;2023-05-01T09:09:51;101287.09;;;15.29;46.11
29825;BME280;16713;52.916;12.834;2023-05-01T09:12:21;101279.34;;;15.12;46.87
29825;BME280;16713;52.916;12.834;2023-05-01T09:14:51;101278.06;;;15.06;48.30
29825;BME280;16713;52.916;12.834;2023-05-01T09:17:18;101279.91;;;15.25;46.89
29825;BME280;16713;52.916;12.834;2023-05-01T09:19:45;101275.63;;;15.27;46.03
29825;BME280;16713;52.916;12.834;2023-05-01T09:22:12;101270.47;;;15.00;47.36
29825;BME280;16713;52.916;12.834;2023-05-01T09:24:38;101269.16;;;15.16;47.74
29825;BME280;16713;52.916;12.834;2023-05-01T09:27:05;101265.75;;;15.00;44.89
29825;BME280;16713;52.916;12.834;2023-05-01T09:29:42;101261.28;;;14.92;46.97
29825;BME280;16713;52.916;12.834;2023-05-01T09:32:12;101260.94;;;14.97;48.20
29825;BME280;16713;52.916;12.834;2023-05-01T09:34:39;101251.28;;;15.10;45.62
29825;BME280;16713;52.916;12.834;2023-05-01T09:37:06;101257.53;;;15.33;45.75
29825;BME280;16713;52.916;12.834;2023-05-01T09:39:32;101242.97;;;15.07;46.30
29825;BME280;16713;52.916;12.834;2023-05-01T09:41:58;101243.47;;;14.90;46.50
29825;BME280;16713;52.916;12.834;2023-05-01T09:44:25;101257.22;;;15.12;46.37
29825;BME280;16713;52.916;12.834;2023-05-01T09:46:52;101235.47;;;14.85;46.79
29825;BME280;16713;52.916;12.834;2023-05-01T09:49:19;101242.88;;;14.77;46.43
29825;BME280;16713;52.916;12.834;2023-05-01T09:51:45;101243.09;;;14.91;44.86
29825;BME280;16713;52.916;12.834;2023-05-01T09:54:19;101231.28;;;14.68;45.04
29825;BME280;16713;52.916;12.834;2023-05-01T09:56:46;101246.16;;;14.86;45.45
29825;BME280;16713;52.916;12.834;2023-05-01T09:59:14;101235.03;;;14.79;45.20
29825;BME280;16713;52.916;12.834;2023-05-01T10:01:42;101236.44;;;14.96;45.64
29825;BME280;16713;52.916;12.834;2023-05-01T10:04:09;101229.59;;;14.86;46.85
29825;BME280;16713;52.916;12.834;2023-05-01T10:06:36;101230.88;;;14.92;44.92
29825;BME280;16713;52.916;12.834;2023-05-01T10:09:03;101235.34;;;15.00;47.04
29825;BME280;16713;52.916;12.834;2023-05-01T10:11:47;101237.94;;;15.42;45.56
29825;BME280;16713;52.916;12.834;2023-05-01T10:14:14;101237.94;;;15.71;45.36
29825;BME280;16713;52.916;12.834;2023-05-01T10:16:41;101227.47;;;15.87;43.17
29825;BME280;16713;52.916;12.834;2023-05-01T10:19:08;101228.88;;;16.07;43.72
29825;BME280;16713;52.916;12.834;2023-05-01T10:21:35;101230.59;;;16.19;43.63
29825;BME280;16713;52.916;12.834;2023-05-01T10:24:02;101227.94;;;16.30;43.66
29825;BME280;16713;52.916;12.834;2023-05-01T10:26:29;101231.22;;;16.42;43.49
29825;BME280;16713;52.916;12.834;2023-05-01T10:28:55;101229.81;;;16.59;43.58
29825;BME280;16713;52.916;12.834;2023-05-01T10:31:24;101217.88;;;16.51;42.22
29825;BME280;16713;52.916;12.834;2023-05-01T10:33:53;101214.84;;;16.67;41.94
29825;BME280;16713;52.916;12.834;2023-05-01T10:36:21;101218.94;;;16.87;42.29
29825;BME280;16713;52.916;12.834;2023-05-01T10:38:49;101220.66;;;17.05;42.56
29825;BME280;16713;52.916;12.834;2023-05-01T10:41:16;101206.78;;;17.02;41.68
29825;BME280;16713;52.916;12.834;2023-05-01T10:43:42;101209.16;;;17.03;41.71
29825;BME280;16713;52.916;12.834;2023-05-01T10:51:11;101181.91;;;17.16;40.89
29825;BME280;16713;52.916;12.834;2023-05-01T10:53:39;101179.16;;;17.16;40.78
29825;BME280;16713;52.916;12.834;2023-05-01T10:56:48;101185.53;;;17.20;41.38
29825;BME280;16713;52.916;12.834;2023-05-01T10:58:59;101172.34;;;16.99;41.63
29825;BME280;16713;52.916;12.834;2023-05-01T11:03:56;101160.97;;;16.57;40.25
29825;BME280;16713;52.916;12.834;2023-05-01T11:06:23;101163.66;;;16.50;40.81
29825;BME280;16713;52.916;12.834;2023-05-01T11:08:49;101166.22;;;16.73;40.60
29825;BME280;16713;52.916;12.834;2023-05-01T11:19:04;101149.03;;;16.53;41.07
29825;BME280;16713;52.916;12.834;2023-05-01T11:21:31;101149.91;;;16.61;40.54
29825;BME280;16713;52.916;12.834;2023-05-01T11:24:02;101123.56;;;15.90;42.51
29825;BME280;16713;52.916;12.834;2023-05-01T11:26:29;101127.50;;;16.33;41.11
29825;BME280;16713;52.916;12.834;2023-05-01T11:28:58;101137.22;;;16.60;40.79
29825;BME280;16713;52.916;12.834;2023-05-01T11:31:25;101125.13;;;16.31;41.23
29825;BME280;16713;52.916;12.834;2023-05-01T11:33:54;101110.38;;;16.20;40.94
29825;BME280;16713;52.916;12.834;2023-05-01T11:36:21;101120.06;;;16.37;41.33
29825;BME280;16713;52.916;12.834;2023-05-01T11:38:50;101111.19;;;16.24;41.58
29825;BME280;16713;52.916;12.834;2023-05-01T11:41:21;101104.69;;;16.50;41.60
29825;BME280;16713;52.916;12.834;2023-05-01T11:43:48;101117.44;;;16.61;41.08
29825;BME280;16713;52.916;12.834;2023-05-01T11:46:16;101113.22;;;16.31;41.89
29825;BME280;16713;52.916;12.834;2023-05-01T11:48:49;101103.91;;;16.02;42.73
29825;BME280;16713;52.916;12.834;2023-05-01T11:51:15;101110.44;;;16.24;42.64
29825;BME280;16713;52.916;12.834;2023-05-01T11:53:41;101093.13;;;15.93;43.19
29825;BME280;16713;52.916;12.834;2023-05-01T11:56:17;101086.63;;;15.72;43.37
29825;BME280;16713;52.916;12.834;2023-05-01T11:58:44;101102.16;;;16.31;42.59
29825;BME280;16713;52.916;12.834;2023-05-01T12:01:11;101096.31;;;16.36;41.60
29825;BME280;16713;52.916;12.834;2023-05-01T12:03:39;101079.53;;;16.18;42.85
29825;BME280;16713;52.916;12.834;2023-05-01T12:06:08;101071.69;;;16.24;42.87
29825;BME280;16713;52.916;12.834;2023-05-01T12:08:34;101077.94;;;16.17;43.75
29825;BME280;16713;52.916;12.834;2023-05-01T12:11:01;101064.16;;;16.21;43.21
29825;BME280;16713;52.916;12.834;2023-05-01T12:13:28;101047.19;;;15.78;44.61
29825;BME280;16713;52.916;12.834;2023-05-01T12:15:55;101071.13;;;16.55;43.21
29825;BME280;16713;52.916;12.834;2023-05-01T12:18:21;101063.00;;;16.86;42.54
29825;BME280;16713;52.916;12.834;2023-05-01T12:20:52;101058.31;;;17.04;42.82
29825;BME280;16713;52.916;12.834;2023-05-01T12:23:40;101068.72;;;17.28;42.46
29825;BME280;16713;52.916;12.834;2023-05-01T12:26:18;101059.28;;;17.47;42.24
29825;BME280;16713;52.916;12.834;2023-05-01T12:28:58;101058.91;;;17.59;42.53
29825;BME280;16713;52.916;12.834;2023-05-01T12:31:25;101057.72;;;17.67;41.56
29825;BME280;16713;52.916;12.834;2023-05-01T12:33:52;101058.53;;;17.75;41.27
29825;BME280;16713;52.916;12.834;2023-05-01T12:36:20;101049.44;;;17.78;40.40
29825;BME280;16713;52.916;12.834;2023-05-01T12:38:57;101043.47;;;17.79;40.98
29825;BME280;16713;52.916;12.834;2023-05-01T12:41:44;101045.06;;;17.91;40.22
29825;BME280;16713;52.916;12.834;2023-05-01T12:44:23;101044.72;;;18.13;42.37
29825;BME280;16713;52.916;12.834;2023-05-01T12:46:54;101041.09;;;18.23;41.66
29825;BME280;16713;52.916;12.834;2023-05-01T12:49:21;101042.72;;;18.24;41.95
29825;BME280;16713;52.916;12.834;2023-05-01T12:51:48;101033.19;;;18.25;42.29
29825;BME280;16713;52.916;12.834;2023-05-01T12:54:48;101032.78;;;18.23;41.43
29825;BME280;16713;52.916;12.834;2023-05-01T12:57:08;101035.56;;;18.23;41.04
29825;BME280;16713;52.916;12.834;2023-05-01T12:59:36;101035.59;;;18.16;40.42
29825;BME280;16713;52.916;12.834;2023-05-01T13:02:04;101030.81;;;18.20;39.88
29825;BME280;16713;52.916;12.834;2023-05-01T13:04:30;101018.53;;;17.97;40.51
29825;BME280;16713;52.916;12.834;2023-05-01T13:06:57;101018.91;;;18.20;39.63
29825;BME280;16713;52.916;12.834;2023-05-01T13:09:25;101014.16;;;18.13;40.01
29825;BME280;16713;52.916;12.834;2023-05-01T13:12:02;101021.28;;;18.21;40.43
29825;BME280;16713;52.916;12.834;2023-05-01T13:14:36;101001.06;;;17.86;40.85
29825;BME280;16713;52.916;12.834;2023-05-01T13:17:05;101019.31;;;18.04;40.90